Riegelwood, North Carolina
Current Conditions -  °F | °C
As of 5:53 PM on Thursday 20 Nov 2014 (Local Time) from KILM Reporting Station
Clear Clear  
Wind Chill: 53°   Ceiling: Unl
Heat Index: 53°   Visibility: 10mi
Dew Point: 39°   Wind: 8mph
Humidity: 59%   Direction: 210°SSW
Pressure: 30.11"   Gusts: NA
Location:  34.34°N, 78.23°W
Report Text: KILM 202253Z 21007KT 10SM CLR 12/04 A3011 RMK AO2 SLP195 T01170039
Loading
Personal Weather Stations






























Interactive Weather Map New forecast layout! Learn more

10-Day Weather Forecast

Advertisements
Track Severe Weather on mobile